createdAt,value
2019-04-12T00:01:54.250Z,30.23
2019-04-12T00:04:22.797Z,28.00
2019-04-12T00:06:51.284Z,27.87
2019-04-12T00:09:19.769Z,26.50
2019-04-12T00:11:48.306Z,26.90
2019-04-12T00:14:16.785Z,25.60
2019-04-12T00:16:45.269Z,26.60
2019-04-12T00:19:14.421Z,25.08
2019-04-12T00:21:45.617Z,26.00
2019-04-12T00:24:14.020Z,25.57
2019-04-12T00:26:43.363Z,26.95
2019-04-12T00:29:11.856Z,26.90
2019-04-12T00:31:40.339Z,26.00
2019-04-12T00:34:08.832Z,27.85
2019-04-12T00:36:37.313Z,24.47
2019-04-12T00:39:07.496Z,28.10
2019-04-12T00:41:35.970Z,27.00
2019-04-12T00:44:04.571Z,26.90
2019-04-12T00:46:35.115Z,26.23
2019-04-12T00:49:03.370Z,27.00
2019-04-12T00:51:31.883Z,26.85
2019-04-12T00:54:00.481Z,25.80
2019-04-12T00:56:29.378Z,27.73
2019-04-12T00:58:57.827Z,26.50
2019-04-12T01:01:31.167Z,25.05
2019-04-12T01:04:01.306Z,26.77
2019-04-12T01:06:29.871Z,25.45
2019-04-12T01:08:58.460Z,24.57
2019-04-12T01:11:27.036Z,23.67
2019-04-12T01:13:58.050Z,26.05
2019-04-12T01:16:30.167Z,23.65
2019-04-12T01:21:26.330Z,22.85
2019-04-12T01:23:54.821Z,23.60
2019-04-12T01:26:23.262Z,22.95
2019-04-12T01:28:51.795Z,23.85
2019-04-12T01:31:20.237Z,23.73
2019-04-12T01:33:48.702Z,23.50
2019-04-12T01:36:17.159Z,22.27
2019-04-12T01:38:45.721Z,24.00
2019-04-12T01:41:14.185Z,22.05
2019-04-12T01:43:42.666Z,23.15
2019-04-12T01:46:11.151Z,22.45
2019-04-12T01:48:39.605Z,22.37
2019-04-12T01:51:08.047Z,22.70
2019-04-12T01:53:36.531Z,21.77
2019-04-12T01:56:05.022Z,22.48
2019-04-12T01:58:33.480Z,20.15
2019-04-12T02:01:01.978Z,19.65
2019-04-12T02:03:30.414Z,22.27
2019-04-12T02:05:58.903Z,21.82
2019-04-12T02:08:27.383Z,19.75
2019-04-12T02:10:55.931Z,22.13
2019-04-12T02:13:24.434Z,20.92
2019-04-12T02:15:52.987Z,20.65
2019-04-12T02:18:21.454Z,21.15
2019-04-12T02:20:50.003Z,19.00
2019-04-12T02:23:18.645Z,20.80
2019-04-12T02:25:47.302Z,21.87
2019-04-12T02:28:15.786Z,21.35
2019-04-12T02:30:46.055Z,22.10
2019-04-12T02:33:14.715Z,19.55
2019-04-12T02:35:44.708Z,20.25
2019-04-12T02:38:13.332Z,20.92
2019-04-12T02:40:43.610Z,18.77
2019-04-12T02:43:12.815Z,18.95
2019-04-12T02:45:44.342Z,21.40
2019-04-12T02:48:20.095Z,18.40
2019-04-12T02:50:53.585Z,19.62
2019-04-12T02:53:44.438Z,17.75
2019-04-12T02:56:33.472Z,18.25
2019-04-12T02:59:05.045Z,16.67
2019-04-12T03:01:34.809Z,17.65
2019-04-12T03:04:03.322Z,16.97
2019-04-12T03:06:32.326Z,19.80
2019-04-12T03:09:01.054Z,17.23
2019-04-12T03:11:31.173Z,16.73
2019-04-12T03:14:02.481Z,19.90
2019-04-12T03:16:32.240Z,16.07
2019-04-12T03:19:00.879Z,18.45
2019-04-12T03:21:29.406Z,18.50
2019-04-12T03:23:58.319Z,17.45
2019-04-12T03:26:27.113Z,17.80
2019-04-12T03:28:59.858Z,17.82
2019-04-12T03:31:30.265Z,18.40
2019-04-12T03:34:00.257Z,16.82
2019-04-12T03:36:30.945Z,17.17
2019-04-12T03:38:59.860Z,15.38
2019-04-12T03:41:28.744Z,16.07
2019-04-12T03:43:57.506Z,17.27
2019-04-12T03:46:26.358Z,15.90
2019-04-12T03:48:56.061Z,15.32
2019-04-12T03:51:25.098Z,14.43
2019-04-12T03:53:53.808Z,15.18
2019-04-12T03:56:22.819Z,15.23
2019-04-12T03:58:53.462Z,14.78
2019-04-12T04:01:22.110Z,17.20
2019-04-12T04:03:51.046Z,15.30
2019-04-12T04:06:19.886Z,14.78
2019-04-12T04:08:48.517Z,14.68
2019-04-12T04:11:17.245Z,14.85
2019-04-12T04:13:45.778Z,15.05
2019-04-12T04:16:16.134Z,15.70
2019-04-12T04:18:45.268Z,16.75
2019-04-12T04:21:18.962Z,14.33
2019-04-12T04:24:02.982Z,14.25
2019-04-12T04:26:33.568Z,14.83
2019-04-12T04:29:20.847Z,14.10
2019-04-12T04:32:09.124Z,13.05
2019-04-12T04:34:37.680Z,12.90
2019-04-12T04:37:06.308Z,14.70
2019-04-12T04:39:35.109Z,13.22
2019-04-12T04:42:04.276Z,13.75
2019-04-12T04:44:32.875Z,14.45
2019-04-12T04:47:01.495Z,12.73
2019-04-12T04:49:30.099Z,13.05
2019-04-12T04:52:00.149Z,11.75
2019-04-12T04:54:29.029Z,14.15
2019-04-12T04:56:57.486Z,14.00
2019-04-12T04:59:26.854Z,12.80
2019-04-12T05:01:55.560Z,13.05
2019-04-12T05:04:24.348Z,11.93
2019-04-12T05:06:52.795Z,13.50
2019-04-12T05:09:21.334Z,11.57
2019-04-12T05:11:50.065Z,11.53
2019-04-12T05:14:18.574Z,14.05
2019-04-12T05:16:47.189Z,12.20
2019-04-12T05:19:15.726Z,12.70
2019-04-12T05:21:44.450Z,13.08
2019-04-12T05:24:13.079Z,12.58
2019-04-12T05:26:45.736Z,13.18
2019-04-12T05:29:12.021Z,12.45
2019-04-12T05:31:40.641Z,12.85
2019-04-12T05:34:09.196Z,12.45
2019-04-12T05:36:38.694Z,13.25
2019-04-12T05:39:07.226Z,13.65
2019-04-12T05:41:35.896Z,13.72
2019-04-12T05:44:06.174Z,12.95
2019-04-12T05:46:56.097Z,13.55
2019-04-12T05:49:35.514Z,13.68
2019-04-12T05:52:04.039Z,12.50
2019-04-12T05:54:32.788Z,13.25
2019-04-12T05:57:02.749Z,11.40
2019-04-12T05:59:41.683Z,12.68
2019-04-12T06:02:31.586Z,10.80
2019-04-12T06:05:00.078Z,13.00
2019-04-12T06:07:28.667Z,13.53
2019-04-12T06:09:57.144Z,12.30
2019-04-12T06:12:25.822Z,13.20
2019-04-12T06:14:55.466Z,11.95
2019-04-12T06:17:24.208Z,12.47
2019-04-12T06:19:54.630Z,13.58
2019-04-12T06:22:23.135Z,13.43
2019-04-12T06:25:00.441Z,12.82
2019-04-12T06:27:43.338Z,12.98
2019-04-12T06:30:13.760Z,12.82
2019-04-12T06:32:42.298Z,12.13
2019-04-12T06:35:10.887Z,12.73
2019-04-12T06:37:39.442Z,11.63
2019-04-12T06:40:08.978Z,12.18
2019-04-12T06:42:37.526Z,12.47
2019-04-12T06:45:07.939Z,10.80
2019-04-12T06:47:36.443Z,11.78
2019-04-12T06:50:08.159Z,12.88
2019-04-12T06:52:36.622Z,11.33
2019-04-12T06:55:22.332Z,10.72
2019-04-12T06:57:50.783Z,11.20
2019-04-12T07:00:29.445Z,13.08
2019-04-12T07:02:59.873Z,11.15
2019-04-12T07:05:28.354Z,11.05
2019-04-12T07:07:56.883Z,12.93
2019-04-12T07:10:25.382Z,12.65
2019-04-12T07:12:53.865Z,11.08
2019-04-12T07:15:22.301Z,11.90
2019-04-12T07:17:50.792Z,11.22
2019-04-12T07:20:19.277Z,12.45
2019-04-12T07:22:47.764Z,11.40
2019-04-12T07:25:16.209Z,13.18
2019-04-12T07:27:44.659Z,14.25
2019-04-12T07:30:13.564Z,11.50
2019-04-12T07:32:42.061Z,11.75
2019-04-12T07:35:10.688Z,12.18
2019-04-12T07:37:39.175Z,12.60
2019-04-12T07:40:07.768Z,11.75
2019-04-12T07:42:36.275Z,13.25
2019-04-12T07:45:06.206Z,12.03
2019-04-12T07:47:34.726Z,13.83
2019-04-12T07:50:08.989Z,13.32
2019-04-12T07:52:37.422Z,12.03
2019-04-12T07:55:25.430Z,13.58
2019-04-12T07:58:07.421Z,13.65
2019-04-12T08:00:43.471Z,13.38
2019-04-12T08:03:16.262Z,13.78
2019-04-12T08:05:46.380Z,12.80
2019-04-12T08:08:14.821Z,13.20
2019-04-12T08:10:43.383Z,13.58
2019-04-12T08:13:11.823Z,14.95
2019-04-12T08:15:40.306Z,14.30
2019-04-12T08:18:08.752Z,15.03
2019-04-12T08:20:37.235Z,13.95
2019-04-12T08:23:05.715Z,14.20
2019-04-12T08:25:34.197Z,14.68
2019-04-12T08:28:02.649Z,14.15
2019-04-12T08:30:31.128Z,14.85
2019-04-12T08:32:59.619Z,13.83
2019-04-12T08:35:28.073Z,14.45
2019-04-12T08:38:04.828Z,13.62
2019-04-12T08:40:26.794Z,14.10
2019-04-12T08:42:55.278Z,14.47
2019-04-12T08:45:23.739Z,14.15
2019-04-12T08:47:52.225Z,14.18
2019-04-12T08:50:20.690Z,14.23
2019-04-12T08:52:49.266Z,14.25
2019-04-12T08:55:18.005Z,14.23
2019-04-12T08:57:46.817Z,15.80
2019-04-12T09:00:15.646Z,15.38
2019-04-12T09:02:44.228Z,14.25
2019-04-12T09:05:12.841Z,14.47
2019-04-12T09:07:41.373Z,15.85
2019-04-12T09:10:10.121Z,16.67
2019-04-12T09:12:38.730Z,17.90
2019-04-12T09:15:07.420Z,17.02
2019-04-12T09:17:35.977Z,15.75
2019-04-12T09:20:16.933Z,15.03
2019-04-12T09:22:47.102Z,15.83
2019-04-12T09:25:22.957Z,16.25
2019-04-12T09:27:51.450Z,16.67
2019-04-12T09:30:19.959Z,15.90
2019-04-12T09:32:48.527Z,17.27
2019-04-12T09:35:17.116Z,17.60
2019-04-12T09:37:45.593Z,18.10
2019-04-12T09:40:14.094Z,17.30
2019-04-12T09:42:42.541Z,17.10
2019-04-12T09:45:11.166Z,17.40
2019-04-12T09:47:39.675Z,19.20
2019-04-12T09:50:08.567Z,18.93
2019-04-12T09:52:37.021Z,17.87
2019-04-12T09:55:06.535Z,18.17
2019-04-12T09:57:34.991Z,17.87
2019-04-12T10:00:05.016Z,17.27
2019-04-12T10:02:33.534Z,20.80
2019-04-12T10:05:02.023Z,17.07
2019-04-12T10:07:30.473Z,18.40
2019-04-12T10:09:58.962Z,17.50
2019-04-12T10:12:27.404Z,19.80
2019-04-12T10:14:55.890Z,20.07
2019-04-12T10:17:24.658Z,19.93
2019-04-12T10:19:53.100Z,18.47
2019-04-12T10:22:21.566Z,17.77
2019-04-12T10:24:50.048Z,19.53
2019-04-12T10:27:18.531Z,19.70
2019-04-12T10:29:47.023Z,20.20
2019-04-12T10:32:15.725Z,18.90
2019-04-12T10:34:55.247Z,19.60
2019-04-12T10:37:14.382Z,20.00
2019-04-12T10:39:42.844Z,19.30
2019-04-12T10:42:11.388Z,20.20
2019-04-12T10:44:56.494Z,20.57
2019-04-12T10:47:35.405Z,19.90
2019-04-12T10:50:25.402Z,20.70
2019-04-12T10:53:10.322Z,20.17
2019-04-12T10:55:40.425Z,18.87
2019-04-12T10:58:08.872Z,21.50
2019-04-12T11:00:44.919Z,21.70
2019-04-12T11:03:13.373Z,20.53
2019-04-12T11:05:41.868Z,21.87
2019-04-12T11:08:10.324Z,21.07
2019-04-12T11:10:38.795Z,22.43
2019-04-12T11:13:07.246Z,22.17
2019-04-12T11:15:35.838Z,23.13
2019-04-12T11:18:04.424Z,20.97
2019-04-12T11:20:32.906Z,22.70
2019-04-12T11:23:01.394Z,22.67
2019-04-12T11:25:29.994Z,22.93
2019-04-12T11:27:58.521Z,23.47
2019-04-12T11:30:27.054Z,22.80
2019-04-12T11:32:55.534Z,22.33
2019-04-12T11:35:24.014Z,21.27
2019-04-12T11:37:52.504Z,21.40
2019-04-12T11:40:21.401Z,22.40
2019-04-12T11:42:50.129Z,21.90
2019-04-12T11:45:18.754Z,22.23
2019-04-12T11:47:47.216Z,21.43
2019-04-12T11:50:16.220Z,23.17
2019-04-12T11:52:44.692Z,23.27
2019-04-12T11:55:13.353Z,23.90
2019-04-12T11:57:41.812Z,22.03
2019-04-12T12:00:13.579Z,22.43
2019-04-12T12:02:52.659Z,23.97
2019-04-12T12:05:31.530Z,22.27
2019-04-12T12:08:01.655Z,25.00
2019-04-12T12:10:47.966Z,22.77
2019-04-12T12:13:18.051Z,21.90
2019-04-12T12:15:50.822Z,23.00
2019-04-12T12:18:20.955Z,22.50
2019-04-12T12:20:49.404Z,24.63
2019-04-12T12:23:17.908Z,22.60
2019-04-12T12:25:46.363Z,22.87
2019-04-12T12:28:14.833Z,24.33
2019-04-12T12:30:43.307Z,22.23
2019-04-12T12:33:11.743Z,21.63
2019-04-12T12:35:40.226Z,22.50
2019-04-12T12:38:08.682Z,20.43
2019-04-12T12:40:37.168Z,22.50
2019-04-12T12:43:05.611Z,21.53
2019-04-12T12:45:34.053Z,20.30
2019-04-12T12:48:02.573Z,23.13
2019-04-12T12:50:31.064Z,22.33
2019-04-12T12:52:59.590Z,20.70
2019-04-12T12:55:28.121Z,21.23
2019-04-12T12:57:56.658Z,21.10
2019-04-12T13:00:25.143Z,21.27
2019-04-12T13:02:53.595Z,21.10
2019-04-12T13:05:22.092Z,21.00
2019-04-12T13:07:50.535Z,21.13
2019-04-12T13:10:19.163Z,21.50
2019-04-12T13:12:47.641Z,21.00
2019-04-12T13:15:16.258Z,21.47
2019-04-12T13:17:44.901Z,21.67
2019-04-12T13:20:13.416Z,21.20
2019-04-12T13:22:42.035Z,20.40
2019-04-12T13:25:10.473Z,20.50
2019-04-12T13:27:38.966Z,21.80
2019-04-12T13:30:15.356Z,20.60
2019-04-12T13:32:48.412Z,21.70
2019-04-12T13:35:21.089Z,19.63
2019-04-12T13:37:51.289Z,22.00
2019-04-12T13:40:27.501Z,21.90
2019-04-12T13:42:57.622Z,19.83
2019-04-12T13:45:26.704Z,21.40
2019-04-12T13:47:55.145Z,21.17
2019-04-12T13:50:23.689Z,21.00
2019-04-12T13:52:52.205Z,21.70
2019-04-12T13:55:20.826Z,21.47
2019-04-12T13:57:49.274Z,20.20
2019-04-12T14:00:21.028Z,21.43
2019-04-12T14:02:49.612Z,21.67
2019-04-12T14:05:18.164Z,22.70
2019-04-12T14:07:46.644Z,21.50
2019-04-12T14:10:16.421Z,20.70
2019-04-12T14:12:44.922Z,19.30
2019-04-12T14:15:14.547Z,20.50
2019-04-12T14:17:43.025Z,20.57
2019-04-12T14:20:11.574Z,21.17
2019-04-12T14:22:40.022Z,22.10
2019-04-12T14:25:08.646Z,20.43
2019-04-12T14:27:37.127Z,23.10
2019-04-12T14:30:08.482Z,20.93
2019-04-12T14:32:41.394Z,20.10
2019-04-12T14:35:12.221Z,21.63
2019-04-12T14:37:42.336Z,20.97
2019-04-12T14:40:10.932Z,23.07
2019-04-12T14:42:39.407Z,20.73
2019-04-12T14:45:15.510Z,21.30
2019-04-12T14:47:45.697Z,20.73
2019-04-12T14:50:14.146Z,23.03
2019-04-12T14:52:42.588Z,21.93
2019-04-12T14:55:11.199Z,19.93
2019-04-12T14:57:39.648Z,21.77
2019-04-12T15:00:10.498Z,23.53
2019-04-12T15:02:38.950Z,22.10
2019-04-12T15:05:09.688Z,21.27
2019-04-12T15:07:38.335Z,22.33
2019-04-12T15:10:07.727Z,21.50
2019-04-12T15:12:36.230Z,21.60
2019-04-12T15:15:07.053Z,21.80
2019-04-12T15:17:35.512Z,23.67
2019-04-12T15:20:06.303Z,22.30
2019-04-12T15:22:34.765Z,20.80
2019-04-12T15:25:04.025Z,20.67
2019-04-12T15:27:32.571Z,20.87
2019-04-12T15:30:01.209Z,20.17
2019-04-12T15:32:29.654Z,22.10
2019-04-12T15:34:58.164Z,20.90
2019-04-12T15:37:26.622Z,22.20
2019-04-12T15:39:55.157Z,22.33
2019-04-12T15:42:23.632Z,22.30
2019-04-12T15:44:52.092Z,22.87
2019-04-12T15:47:20.572Z,22.10
2019-04-12T15:49:49.027Z,23.40
2019-04-12T15:52:17.716Z,21.83
2019-04-12T15:54:46.196Z,20.93
2019-04-12T15:57:15.172Z,21.70
2019-04-12T15:59:44.013Z,19.43
2019-04-12T16:02:13.133Z,20.67
2019-04-12T16:04:42.601Z,20.40
2019-04-12T16:07:11.261Z,20.93
2019-04-12T16:09:41.927Z,21.50
2019-04-12T16:12:16.124Z,22.43
2019-04-12T16:15:05.693Z,20.73
2019-04-12T16:17:49.294Z,21.83
2019-04-12T16:20:17.786Z,22.07
2019-04-12T16:22:46.222Z,21.30
2019-04-12T16:25:14.781Z,23.00
2019-04-12T16:27:47.468Z,22.13
2019-04-12T16:30:35.762Z,21.80
2019-04-12T16:33:12.173Z,20.83
2019-04-12T16:35:42.292Z,19.00
2019-04-12T16:38:12.374Z,22.43
2019-04-12T16:40:40.851Z,21.13
2019-04-12T16:43:09.389Z,22.27
2019-04-12T16:45:37.844Z,23.47
2019-04-12T16:48:06.399Z,21.33
2019-04-12T16:50:34.857Z,22.37
2019-04-12T16:53:03.460Z,20.80
2019-04-12T16:55:31.934Z,21.87
2019-04-12T16:58:00.415Z,22.27
2019-04-12T17:00:37.561Z,22.30
2019-04-12T17:03:06.764Z,22.10
2019-04-12T17:05:36.241Z,21.40
2019-04-12T17:08:06.054Z,21.12
2019-04-12T17:10:34.824Z,21.23
2019-04-12T17:13:03.486Z,21.60
2019-04-12T17:15:32.099Z,22.03
2019-04-12T17:18:00.578Z,22.90
2019-04-12T17:20:29.054Z,22.57
2019-04-12T17:22:57.694Z,21.20
2019-04-12T17:25:26.135Z,22.23
2019-04-12T17:27:54.627Z,21.70
2019-04-12T17:30:23.070Z,23.40
2019-04-12T17:32:51.738Z,22.30
2019-04-12T17:35:20.216Z,24.40
2019-04-12T17:37:48.677Z,22.30
2019-04-12T17:40:17.293Z,22.20
2019-04-12T17:42:45.849Z,22.37
2019-04-12T17:45:14.626Z,23.18
2019-04-12T17:47:43.078Z,22.58
2019-04-12T17:50:30.768Z,22.93
2019-04-12T17:53:00.856Z,24.50
2019-04-12T17:55:31.036Z,21.87
2019-04-12T17:57:59.515Z,22.90
2019-04-12T18:00:32.531Z,22.43
2019-04-12T18:03:01.015Z,23.40
2019-04-12T18:05:29.539Z,23.30
2019-04-12T18:07:58.024Z,22.30
2019-04-12T18:10:28.774Z,21.95
2019-04-12T18:12:56.656Z,22.60
2019-04-12T18:15:25.108Z,23.15
2019-04-12T18:17:53.591Z,23.70
2019-04-12T18:20:22.060Z,22.20
2019-04-12T18:22:51.448Z,22.80
2019-04-12T18:25:20.026Z,24.43
2019-04-12T18:27:48.475Z,22.30
2019-04-12T18:30:18.366Z,23.27
2019-04-12T18:32:49.750Z,24.33
2019-04-12T18:35:17.035Z,24.07
2019-04-12T18:37:45.497Z,23.15
2019-04-12T18:40:14.143Z,24.10
2019-04-12T18:42:42.654Z,23.87
2019-04-12T18:45:11.473Z,22.83
2019-04-12T18:47:39.918Z,23.25
2019-04-12T18:50:08.647Z,22.83
2019-04-12T18:52:37.124Z,20.92
2019-04-12T18:55:07.376Z,22.87
2019-04-12T18:57:35.914Z,20.52
2019-04-12T19:00:07.620Z,23.00
2019-04-12T19:02:36.205Z,22.32
2019-04-12T19:05:06.871Z,21.35
2019-04-12T19:07:35.338Z,20.97
2019-04-12T19:10:05.931Z,21.12
2019-04-12T19:12:34.604Z,20.17
2019-04-12T19:15:04.314Z,21.05
2019-04-12T19:17:32.961Z,22.30
2019-04-12T19:20:01.419Z,20.20
2019-04-12T19:22:29.898Z,19.30
2019-04-12T19:24:58.357Z,18.95
2019-04-12T19:27:26.854Z,20.45
2019-04-12T19:29:55.332Z,21.20
2019-04-12T19:32:38.741Z,18.60
2019-04-12T19:35:00.082Z,21.40
2019-04-12T19:37:32.895Z,20.32
2019-04-12T19:40:03.011Z,20.60
2019-04-12T19:42:31.513Z,20.80
2019-04-12T19:45:00.011Z,20.00
2019-04-12T19:47:28.480Z,18.20
2019-04-12T19:49:56.971Z,18.87
2019-04-12T19:52:25.425Z,20.27
2019-04-12T19:54:53.916Z,19.32
2019-04-12T19:57:22.432Z,20.20
2019-04-12T19:59:50.908Z,20.35
2019-04-12T20:02:19.375Z,19.15
2019-04-12T20:04:47.857Z,18.62
2019-04-12T20:07:16.340Z,19.35
2019-04-12T20:09:44.802Z,19.67
2019-04-12T20:12:13.502Z,20.88
2019-04-12T20:14:42.231Z,18.75
2019-04-12T20:17:10.834Z,17.40
2019-04-12T20:19:39.376Z,19.40
2019-04-12T20:22:08.042Z,18.32
2019-04-12T20:24:36.522Z,20.72
2019-04-12T20:27:05.011Z,19.27
2019-04-12T20:29:33.465Z,19.92
2019-04-12T20:32:01.982Z,19.57
2019-04-12T20:34:30.487Z,19.85
2019-04-12T20:36:58.954Z,18.65
2019-04-12T20:39:27.446Z,18.92
2019-04-12T20:41:55.898Z,20.07
2019-04-12T20:44:26.841Z,21.70
2019-04-12T20:46:54.674Z,18.55
2019-04-12T20:49:23.166Z,21.02
2019-04-12T20:51:51.628Z,18.60
2019-04-12T20:54:20.103Z,19.30
2019-04-12T20:56:48.550Z,18.30
2019-04-12T20:59:17.034Z,19.00
2019-04-12T21:01:45.483Z,19.98
2019-04-12T21:04:14.025Z,21.02
2019-04-12T21:06:42.511Z,19.62
2019-04-12T21:09:10.993Z,21.17
2019-04-12T21:11:39.455Z,20.48
2019-04-12T21:14:07.929Z,20.88
2019-04-12T21:16:36.490Z,21.55
2019-04-12T21:19:05.145Z,21.65
2019-04-12T21:21:33.590Z,20.20
2019-04-12T21:24:02.101Z,18.82
2019-04-12T21:26:33.698Z,19.48
2019-04-12T21:29:00.757Z,21.07
2019-04-12T21:31:29.383Z,20.37
2019-04-12T21:33:57.830Z,19.37
2019-04-12T21:36:26.386Z,19.23
2019-04-12T21:38:54.846Z,18.07
2019-04-12T21:41:23.335Z,19.95
2019-04-12T21:43:51.784Z,18.55
2019-04-12T21:46:20.369Z,19.48
2019-04-12T21:48:48.892Z,20.08
2019-04-12T21:51:17.346Z,18.80
2019-04-12T21:53:45.892Z,18.87
2019-04-12T21:56:14.382Z,19.23
2019-04-12T21:58:42.829Z,19.17
2019-04-12T22:01:14.417Z,19.25
2019-04-12T22:03:43.434Z,20.05
2019-04-12T22:06:11.927Z,19.32
2019-04-12T22:08:40.382Z,17.80
2019-04-12T22:11:08.871Z,19.07
2019-04-12T22:13:37.365Z,18.48
2019-04-12T22:16:05.886Z,19.50
2019-04-12T22:18:34.377Z,20.35
2019-04-12T22:21:02.818Z,19.80
2019-04-12T22:23:31.302Z,19.30
2019-04-12T22:26:00.330Z,18.23
2019-04-12T22:28:28.819Z,18.73
2019-04-12T22:30:57.354Z,19.37
2019-04-12T22:33:26.071Z,18.07
2019-04-12T22:35:54.549Z,18.37
2019-04-12T22:38:23.044Z,20.15
2019-04-12T22:40:51.508Z,18.67
2019-04-12T22:43:20.011Z,19.20
2019-04-12T22:45:48.465Z,19.20
2019-04-12T22:48:16.921Z,18.60
2019-04-12T22:50:45.402Z,19.00
2019-04-12T22:53:13.877Z,20.75
2019-04-12T22:55:42.363Z,19.40
2019-04-12T22:58:10.807Z,19.05
2019-04-12T23:00:39.292Z,18.25
2019-04-12T23:03:07.729Z,17.05
2019-04-12T23:05:38.527Z,18.55
2019-04-12T23:08:06.987Z,19.40
2019-04-12T23:10:36.124Z,18.48
2019-04-12T23:13:04.629Z,19.45
2019-04-12T23:15:33.112Z,19.87
2019-04-12T23:18:01.598Z,19.37
2019-04-12T23:20:30.057Z,19.85
2019-04-12T23:22:58.547Z,19.50
2019-04-12T23:25:27.104Z,19.02
2019-04-12T23:27:55.570Z,19.82
2019-04-12T23:30:34.494Z,20.10
2019-04-12T23:33:03.096Z,18.27
2019-04-12T23:35:33.226Z,21.35
2019-04-12T23:38:01.734Z,20.05
2019-04-12T23:40:30.247Z,20.72
2019-04-12T23:42:58.716Z,22.37
2019-04-12T23:45:27.207Z,20.90
2019-04-12T23:47:55.759Z,19.92
2019-04-12T23:50:24.215Z,19.70
2019-04-12T23:52:52.684Z,22.05
2019-04-12T23:55:21.171Z,23.18
2019-04-12T23:57:49.687Z,20.77
